sensor_id;sensor_type;location;lat;lon;timestamp;P1;durP1;ratioP1;P2;durP2;ratioP2
52542;SDS011;38449;52.696;6.186;2024-03-22T00:01:50;36.10;;;22.33;;
52542;SDS011;38449;52.696;6.186;2024-03-22T00:04:18;35.50;;;22.95;;
52542;SDS011;38449;52.696;6.186;2024-03-22T00:06:45;36.22;;;22.88;;
52542;SDS011;38449;52.696;6.186;2024-03-22T00:09:13;40.72;;;25.13;;
52542;SDS011;38449;52.696;6.186;2024-03-22T00:11:40;36.92;;;23.65;;
52542;SDS011;38449;52.696;6.186;2024-03-22T00:14:08;39.10;;;22.88;;
52542;SDS011;38449;52.696;6.186;2024-03-22T00:16:35;39.40;;;23.45;;
52542;SDS011;38449;52.696;6.186;2024-03-22T00:19:01;39.28;;;24.40;;
52542;SDS011;38449;52.696;6.186;2024-03-22T00:21:28;37.70;;;23.15;;
52542;SDS011;38449;52.696;6.186;2024-03-22T00:23:55;40.58;;;24.55;;
52542;SDS011;38449;52.696;6.186;2024-03-22T00:26:22;39.60;;;23.88;;
52542;SDS011;38449;52.696;6.186;2024-03-22T00:28:49;42.17;;;24.60;;
52542;SDS011;38449;52.696;6.186;2024-03-22T00:31:15;41.55;;;24.02;;
52542;SDS011;38449;52.696;6.186;2024-03-22T00:33:42;41.30;;;23.48;;
52542;SDS011;38449;52.696;6.186;2024-03-22T00:36:08;39.17;;;24.65;;
52542;SDS011;38449;52.696;6.186;2024-03-22T00:38:35;44.58;;;28.85;;
52542;SDS011;38449;52.696;6.186;2024-03-22T00:41:01;42.10;;;25.25;;
52542;SDS011;38449;52.696;6.186;2024-03-22T00:43:28;43.72;;;27.10;;
52542;SDS011;38449;52.696;6.186;2024-03-22T00:45:54;38.78;;;24.65;;
52542;SDS011;38449;52.696;6.186;2024-03-22T00:48:20;41.33;;;24.83;;
52542;SDS011;38449;52.696;6.186;2024-03-22T00:50:46;43.45;;;27.08;;
52542;SDS011;38449;52.696;6.186;2024-03-22T00:53:13;39.00;;;24.98;;
52542;SDS011;38449;52.696;6.186;2024-03-22T00:55:39;43.75;;;26.33;;
52542;SDS011;38449;52.696;6.186;2024-03-22T00:58:05;43.38;;;27.55;;
52542;SDS011;38449;52.696;6.186;2024-03-22T01:00:32;42.03;;;28.13;;
52542;SDS011;38449;52.696;6.186;2024-03-22T01:02:58;42.55;;;25.65;;
52542;SDS011;38449;52.696;6.186;2024-03-22T01:05:24;43.70;;;26.45;;
52542;SDS011;38449;52.696;6.186;2024-03-22T01:07:51;42.15;;;26.65;;
52542;SDS011;38449;52.696;6.186;2024-03-22T01:10:18;46.83;;;28.73;;
52542;SDS011;38449;52.696;6.186;2024-03-22T01:12:44;42.60;;;26.23;;
52542;SDS011;38449;52.696;6.186;2024-03-22T01:15:10;45.67;;;27.65;;
52542;SDS011;38449;52.696;6.186;2024-03-22T01:17:37;43.38;;;26.25;;
52542;SDS011;38449;52.696;6.186;2024-03-22T01:20:03;43.38;;;28.15;;
52542;SDS011;38449;52.696;6.186;2024-03-22T01:22:30;43.95;;;26.88;;
52542;SDS011;38449;52.696;6.186;2024-03-22T01:24:56;40.38;;;26.10;;
52542;SDS011;38449;52.696;6.186;2024-03-22T01:27:23;42.60;;;26.00;;
52542;SDS011;38449;52.696;6.186;2024-03-22T01:29:49;45.53;;;29.05;;
52542;SDS011;38449;52.696;6.186;2024-03-22T01:32:15;45.80;;;27.45;;
52542;SDS011;38449;52.696;6.186;2024-03-22T01:34:42;48.65;;;28.40;;
52542;SDS011;38449;52.696;6.186;2024-03-22T01:37:08;45.92;;;25.88;;
52542;SDS011;38449;52.696;6.186;2024-03-22T01:39:34;47.83;;;28.30;;
52542;SDS011;38449;52.696;6.186;2024-03-22T01:42:01;49.05;;;28.23;;
52542;SDS011;38449;52.696;6.186;2024-03-22T01:44:27;44.35;;;27.45;;
52542;SDS011;38449;52.696;6.186;2024-03-22T01:46:55;46.08;;;25.90;;
52542;SDS011;38449;52.696;6.186;2024-03-22T01:49:22;49.33;;;31.00;;
52542;SDS011;38449;52.696;6.186;2024-03-22T01:51:51;48.25;;;27.77;;
52542;SDS011;38449;52.696;6.186;2024-03-22T01:54:18;48.45;;;27.52;;
52542;SDS011;38449;52.696;6.186;2024-03-22T01:56:46;46.15;;;30.38;;
52542;SDS011;38449;52.696;6.186;2024-03-22T01:59:12;45.30;;;26.92;;
52542;SDS011;38449;52.696;6.186;2024-03-22T02:01:40;47.45;;;30.15;;
52542;SDS011;38449;52.696;6.186;2024-03-22T02:04:06;45.88;;;29.20;;
52542;SDS011;38449;52.696;6.186;2024-03-22T02:06:32;48.17;;;29.50;;
52542;SDS011;38449;52.696;6.186;2024-03-22T02:08:59;50.78;;;30.90;;
52542;SDS011;38449;52.696;6.186;2024-03-22T02:11:25;46.25;;;27.02;;
52542;SDS011;38449;52.696;6.186;2024-03-22T02:13:52;50.28;;;28.88;;
52542;SDS011;38449;52.696;6.186;2024-03-22T02:16:18;47.97;;;30.30;;
52542;SDS011;38449;52.696;6.186;2024-03-22T02:18:45;50.30;;;29.02;;
52542;SDS011;38449;52.696;6.186;2024-03-22T02:21:11;48.28;;;31.30;;
52542;SDS011;38449;52.696;6.186;2024-03-22T02:23:38;47.38;;;28.45;;
52542;SDS011;38449;52.696;6.186;2024-03-22T02:26:05;45.45;;;27.88;;
52542;SDS011;38449;52.696;6.186;2024-03-22T02:28:33;46.42;;;27.23;;
52542;SDS011;38449;52.696;6.186;2024-03-22T02:31:04;47.65;;;28.52;;
52542;SDS011;38449;52.696;6.186;2024-03-22T02:33:30;46.03;;;27.67;;
52542;SDS011;38449;52.696;6.186;2024-03-22T02:35:57;47.85;;;28.88;;
52542;SDS011;38449;52.696;6.186;2024-03-22T02:38:23;48.67;;;27.83;;
52542;SDS011;38449;52.696;6.186;2024-03-22T02:40:51;53.80;;;28.33;;
52542;SDS011;38449;52.696;6.186;2024-03-22T02:43:18;47.03;;;28.55;;
52542;SDS011;38449;52.696;6.186;2024-03-22T02:45:47;49.83;;;28.27;;
52542;SDS011;38449;52.696;6.186;2024-03-22T02:48:13;47.97;;;29.33;;
52542;SDS011;38449;52.696;6.186;2024-03-22T02:50:40;49.65;;;28.92;;
52542;SDS011;38449;52.696;6.186;2024-03-22T02:53:07;49.47;;;26.85;;
52542;SDS011;38449;52.696;6.186;2024-03-22T02:55:37;46.30;;;26.15;;
52542;SDS011;38449;52.696;6.186;2024-03-22T02:58:04;49.78;;;28.13;;
52542;SDS011;38449;52.696;6.186;2024-03-22T03:00:37;45.80;;;26.52;;
52542;SDS011;38449;52.696;6.186;2024-03-22T03:03:06;47.38;;;26.90;;
52542;SDS011;38449;52.696;6.186;2024-03-22T03:05:33;43.83;;;25.80;;
52542;SDS011;38449;52.696;6.186;2024-03-22T03:08:00;47.00;;;29.83;;
52542;SDS011;38449;52.696;6.186;2024-03-22T03:10:27;44.40;;;27.73;;
52542;SDS011;38449;52.696;6.186;2024-03-22T03:12:56;48.05;;;27.55;;
52542;SDS011;38449;52.696;6.186;2024-03-22T03:15:22;43.90;;;27.55;;
52542;SDS011;38449;52.696;6.186;2024-03-22T03:17:48;45.67;;;28.98;;
52542;SDS011;38449;52.696;6.186;2024-03-22T03:20:15;44.97;;;27.17;;
52542;SDS011;38449;52.696;6.186;2024-03-22T03:22:43;48.35;;;29.70;;
52542;SDS011;38449;52.696;6.186;2024-03-22T03:25:09;46.85;;;26.30;;
52542;SDS011;38449;52.696;6.186;2024-03-22T03:27:36;44.22;;;25.65;;
52542;SDS011;38449;52.696;6.186;2024-03-22T03:30:02;48.28;;;30.52;;
52542;SDS011;38449;52.696;6.186;2024-03-22T03:32:29;48.13;;;27.25;;
52542;SDS011;38449;52.696;6.186;2024-03-22T03:34:55;44.50;;;27.40;;
52542;SDS011;38449;52.696;6.186;2024-03-22T03:37:22;48.38;;;28.40;;
52542;SDS011;38449;52.696;6.186;2024-03-22T03:39:48;49.13;;;26.80;;
52542;SDS011;38449;52.696;6.186;2024-03-22T03:42:14;45.97;;;28.60;;
52542;SDS011;38449;52.696;6.186;2024-03-22T03:44:40;44.53;;;26.02;;
52542;SDS011;38449;52.696;6.186;2024-03-22T03:47:07;45.60;;;27.98;;
52542;SDS011;38449;52.696;6.186;2024-03-22T03:49:34;46.50;;;26.35;;
52542;SDS011;38449;52.696;6.186;2024-03-22T03:52:00;45.83;;;28.48;;
52542;SDS011;38449;52.696;6.186;2024-03-22T03:54:26;46.60;;;28.38;;
52542;SDS011;38449;52.696;6.186;2024-03-22T03:56:54;48.35;;;29.95;;
52542;SDS011;38449;52.696;6.186;2024-03-22T03:59:20;45.92;;;28.30;;
52542;SDS011;38449;52.696;6.186;2024-03-22T04:01:46;47.85;;;29.20;;
52542;SDS011;38449;52.696;6.186;2024-03-22T04:04:13;46.13;;;28.15;;
52542;SDS011;38449;52.696;6.186;2024-03-22T04:06:39;49.08;;;29.52;;
52542;SDS011;38449;52.696;6.186;2024-03-22T04:09:06;53.50;;;31.63;;
52542;SDS011;38449;52.696;6.186;2024-03-22T04:11:32;52.33;;;29.42;;
52542;SDS011;38449;52.696;6.186;2024-03-22T04:13:58;49.38;;;26.70;;
52542;SDS011;38449;52.696;6.186;2024-03-22T04:16:25;51.70;;;27.65;;
52542;SDS011;38449;52.696;6.186;2024-03-22T04:18:51;50.95;;;27.63;;
52542;SDS011;38449;52.696;6.186;2024-03-22T04:21:17;51.97;;;29.98;;
52542;SDS011;38449;52.696;6.186;2024-03-22T04:23:44;51.20;;;29.83;;
52542;SDS011;38449;52.696;6.186;2024-03-22T04:26:10;48.80;;;26.60;;
52542;SDS011;38449;52.696;6.186;2024-03-22T04:28:36;50.35;;;27.45;;
52542;SDS011;38449;52.696;6.186;2024-03-22T04:31:06;44.15;;;25.02;;
52542;SDS011;38449;52.696;6.186;2024-03-22T04:33:37;48.70;;;26.55;;
52542;SDS011;38449;52.696;6.186;2024-03-22T04:36:04;46.40;;;27.05;;
52542;SDS011;38449;52.696;6.186;2024-03-22T04:38:31;48.13;;;26.90;;
52542;SDS011;38449;52.696;6.186;2024-03-22T04:40:57;45.63;;;28.45;;
52542;SDS011;38449;52.696;6.186;2024-03-22T04:43:24;47.58;;;26.75;;
52542;SDS011;38449;52.696;6.186;2024-03-22T04:45:51;48.35;;;29.52;;
52542;SDS011;38449;52.696;6.186;2024-03-22T04:48:18;52.65;;;29.63;;
52542;SDS011;38449;52.696;6.186;2024-03-22T04:50:47;46.60;;;26.15;;
52542;SDS011;38449;52.696;6.186;2024-03-22T04:53:16;46.95;;;28.00;;
52542;SDS011;38449;52.696;6.186;2024-03-22T04:55:43;43.45;;;24.65;;
52542;SDS011;38449;52.696;6.186;2024-03-22T04:58:20;44.17;;;26.35;;
52542;SDS011;38449;52.696;6.186;2024-03-22T05:00:47;48.08;;;24.52;;
52542;SDS011;38449;52.696;6.186;2024-03-22T05:03:15;47.35;;;26.30;;
52542;SDS011;38449;52.696;6.186;2024-03-22T05:05:42;50.42;;;24.77;;
52542;SDS011;38449;52.696;6.186;2024-03-22T05:08:08;47.60;;;26.40;;
52542;SDS011;38449;52.696;6.186;2024-03-22T05:10:35;50.45;;;26.83;;
52542;SDS011;38449;52.696;6.186;2024-03-22T05:13:02;44.65;;;24.85;;
52542;SDS011;38449;52.696;6.186;2024-03-22T05:15:28;41.92;;;24.48;;
52542;SDS011;38449;52.696;6.186;2024-03-22T05:17:56;46.22;;;25.45;;
52542;SDS011;38449;52.696;6.186;2024-03-22T05:20:23;42.28;;;23.20;;
52542;SDS011;38449;52.696;6.186;2024-03-22T05:22:50;43.97;;;22.73;;
52542;SDS011;38449;52.696;6.186;2024-03-22T05:25:16;48.00;;;26.10;;
52542;SDS011;38449;52.696;6.186;2024-03-22T05:27:43;41.90;;;24.85;;
52542;SDS011;38449;52.696;6.186;2024-03-22T05:30:10;46.17;;;25.48;;
52542;SDS011;38449;52.696;6.186;2024-03-22T05:32:37;46.13;;;25.30;;
52542;SDS011;38449;52.696;6.186;2024-03-22T05:35:04;40.92;;;23.83;;
52542;SDS011;38449;52.696;6.186;2024-03-22T05:37:31;43.95;;;23.98;;
52542;SDS011;38449;52.696;6.186;2024-03-22T05:39:57;48.63;;;25.80;;
52542;SDS011;38449;52.696;6.186;2024-03-22T05:42:23;45.00;;;26.52;;
52542;SDS011;38449;52.696;6.186;2024-03-22T05:44:50;45.40;;;23.92;;
52542;SDS011;38449;52.696;6.186;2024-03-22T05:47:16;41.60;;;24.67;;
52542;SDS011;38449;52.696;6.186;2024-03-22T05:49:42;44.63;;;25.23;;
52542;SDS011;38449;52.696;6.186;2024-03-22T05:52:08;39.50;;;22.45;;
52542;SDS011;38449;52.696;6.186;2024-03-22T05:54:35;44.03;;;22.83;;
52542;SDS011;38449;52.696;6.186;2024-03-22T05:57:02;40.53;;;23.92;;
52542;SDS011;38449;52.696;6.186;2024-03-22T05:59:28;47.03;;;23.95;;
52542;SDS011;38449;52.696;6.186;2024-03-22T06:01:54;38.42;;;22.50;;
52542;SDS011;38449;52.696;6.186;2024-03-22T06:04:21;42.17;;;23.45;;
52542;SDS011;38449;52.696;6.186;2024-03-22T06:06:47;38.55;;;21.85;;
52542;SDS011;38449;52.696;6.186;2024-03-22T06:09:13;43.28;;;21.10;;
52542;SDS011;38449;52.696;6.186;2024-03-22T06:11:45;40.42;;;23.05;;
52542;SDS011;38449;52.696;6.186;2024-03-22T06:14:11;44.53;;;22.75;;
52542;SDS011;38449;52.696;6.186;2024-03-22T06:16:37;36.78;;;21.05;;
52542;SDS011;38449;52.696;6.186;2024-03-22T06:19:03;40.72;;;24.30;;
52542;SDS011;38449;52.696;6.186;2024-03-22T06:21:30;51.53;;;26.85;;
52542;SDS011;38449;52.696;6.186;2024-03-22T06:23:56;59.80;;;32.33;;
52542;SDS011;38449;52.696;6.186;2024-03-22T06:26:22;58.42;;;29.88;;
52542;SDS011;38449;52.696;6.186;2024-03-22T06:28:48;61.13;;;33.38;;
52542;SDS011;38449;52.696;6.186;2024-03-22T06:31:15;53.65;;;30.17;;
52542;SDS011;38449;52.696;6.186;2024-03-22T06:33:41;55.10;;;29.55;;
52542;SDS011;38449;52.696;6.186;2024-03-22T06:36:08;49.38;;;26.70;;
52542;SDS011;38449;52.696;6.186;2024-03-22T06:38:34;49.53;;;27.80;;
52542;SDS011;38449;52.696;6.186;2024-03-22T06:41:00;45.78;;;25.02;;
52542;SDS011;38449;52.696;6.186;2024-03-22T06:43:27;44.00;;;24.40;;
52542;SDS011;38449;52.696;6.186;2024-03-22T06:45:53;43.60;;;25.10;;
52542;SDS011;38449;52.696;6.186;2024-03-22T06:48:19;38.05;;;25.10;;
52542;SDS011;38449;52.696;6.186;2024-03-22T06:50:45;40.25;;;24.77;;
52542;SDS011;38449;52.696;6.186;2024-03-22T06:53:12;38.40;;;22.98;;
52542;SDS011;38449;52.696;6.186;2024-03-22T06:55:38;43.63;;;23.05;;
52542;SDS011;38449;52.696;6.186;2024-03-22T06:58:04;45.95;;;25.38;;
52542;SDS011;38449;52.696;6.186;2024-03-22T07:00:31;49.28;;;27.20;;
52542;SDS011;38449;52.696;6.186;2024-03-22T07:03:01;47.67;;;25.88;;
52542;SDS011;38449;52.696;6.186;2024-03-22T07:05:28;41.90;;;24.20;;
52542;SDS011;38449;52.696;6.186;2024-03-22T07:07:55;43.22;;;24.52;;
52542;SDS011;38449;52.696;6.186;2024-03-22T07:10:25;30.90;;;18.95;;
52542;SDS011;38449;52.696;6.186;2024-03-22T07:12:56;36.33;;;20.08;;
52542;SDS011;38449;52.696;6.186;2024-03-22T07:15:23;35.85;;;20.67;;
52542;SDS011;38449;52.696;6.186;2024-03-22T07:17:49;40.30;;;21.30;;
52542;SDS011;38449;52.696;6.186;2024-03-22T07:20:16;37.67;;;20.65;;
52542;SDS011;38449;52.696;6.186;2024-03-22T07:22:43;44.63;;;22.13;;
52542;SDS011;38449;52.696;6.186;2024-03-22T07:25:11;41.70;;;24.02;;
52542;SDS011;38449;52.696;6.186;2024-03-22T07:27:37;42.35;;;24.67;;
52542;SDS011;38449;52.696;6.186;2024-03-22T07:30:04;40.33;;;21.42;;
52542;SDS011;38449;52.696;6.186;2024-03-22T07:32:32;50.40;;;25.70;;
52542;SDS011;38449;52.696;6.186;2024-03-22T07:34:58;47.03;;;24.02;;
52542;SDS011;38449;52.696;6.186;2024-03-22T07:37:24;54.30;;;25.58;;
52542;SDS011;38449;52.696;6.186;2024-03-22T07:39:51;51.75;;;27.23;;
52542;SDS011;38449;52.696;6.186;2024-03-22T07:42:17;52.47;;;29.67;;
52542;SDS011;38449;52.696;6.186;2024-03-22T07:44:43;52.08;;;26.50;;
52542;SDS011;38449;52.696;6.186;2024-03-22T07:47:10;43.60;;;24.30;;
52542;SDS011;38449;52.696;6.186;2024-03-22T07:49:37;39.88;;;24.02;;
52542;SDS011;38449;52.696;6.186;2024-03-22T07:52:03;42.22;;;22.23;;
52542;SDS011;38449;52.696;6.186;2024-03-22T07:54:30;40.10;;;20.83;;
52542;SDS011;38449;52.696;6.186;2024-03-22T07:56:57;42.70;;;21.05;;
52542;SDS011;38449;52.696;6.186;2024-03-22T07:59:23;36.63;;;22.75;;
52542;SDS011;38449;52.696;6.186;2024-03-22T08:01:50;42.28;;;19.80;;
52542;SDS011;38449;52.696;6.186;2024-03-22T08:04:17;43.70;;;19.85;;
52542;SDS011;38449;52.696;6.186;2024-03-22T08:06:43;35.08;;;16.50;;
52542;SDS011;38449;52.696;6.186;2024-03-22T08:09:09;30.50;;;14.48;;
52542;SDS011;38449;52.696;6.186;2024-03-22T08:11:36;41.92;;;17.40;;
52542;SDS011;38449;52.696;6.186;2024-03-22T08:14:02;38.70;;;16.15;;
52542;SDS011;38449;52.696;6.186;2024-03-22T08:16:29;47.25;;;18.67;;
52542;SDS011;38449;52.696;6.186;2024-03-22T08:18:56;31.23;;;15.15;;
52542;SDS011;38449;52.696;6.186;2024-03-22T08:21:22;46.28;;;17.48;;
52542;SDS011;38449;52.696;6.186;2024-03-22T08:23:50;27.90;;;13.93;;
52542;SDS011;38449;52.696;6.186;2024-03-22T08:26:17;27.05;;;13.02;;
52542;SDS011;38449;52.696;6.186;2024-03-22T08:28:44;42.80;;;15.95;;
52542;SDS011;38449;52.696;6.186;2024-03-22T08:31:11;36.25;;;12.90;;
52542;SDS011;38449;52.696;6.186;2024-03-22T08:33:38;28.42;;;14.23;;
52542;SDS011;38449;52.696;6.186;2024-03-22T08:36:05;30.40;;;15.13;;
52542;SDS011;38449;52.696;6.186;2024-03-22T08:38:31;45.55;;;15.77;;
52542;SDS011;38449;52.696;6.186;2024-03-22T08:40:58;37.70;;;15.73;;
52542;SDS011;38449;52.696;6.186;2024-03-22T08:43:25;38.22;;;15.35;;
52542;SDS011;38449;52.696;6.186;2024-03-22T08:45:53;30.15;;;15.82;;
52542;SDS011;38449;52.696;6.186;2024-03-22T08:48:19;35.88;;;16.13;;
52542;SDS011;38449;52.696;6.186;2024-03-22T08:50:46;32.55;;;16.05;;
52542;SDS011;38449;52.696;6.186;2024-03-22T08:53:12;28.27;;;14.70;;
52542;SDS011;38449;52.696;6.186;2024-03-22T08:55:44;31.90;;;14.32;;
52542;SDS011;38449;52.696;6.186;2024-03-22T08:58:12;32.45;;;17.65;;
52542;SDS011;38449;52.696;6.186;2024-03-22T09:00:43;33.67;;;18.05;;
52542;SDS011;38449;52.696;6.186;2024-03-22T09:03:10;29.60;;;18.05;;
52542;SDS011;38449;52.696;6.186;2024-03-22T09:05:36;32.50;;;20.02;;
52542;SDS011;38449;52.696;6.186;2024-03-22T09:08:03;34.47;;;20.88;;
52542;SDS011;38449;52.696;6.186;2024-03-22T09:10:29;36.40;;;20.85;;
52542;SDS011;38449;52.696;6.186;2024-03-22T09:12:56;34.15;;;17.63;;
52542;SDS011;38449;52.696;6.186;2024-03-22T09:15:22;40.53;;;18.70;;
52542;SDS011;38449;52.696;6.186;2024-03-22T09:17:51;44.60;;;18.95;;
52542;SDS011;38449;52.696;6.186;2024-03-22T09:20:18;32.47;;;15.63;;
52542;SDS011;38449;52.696;6.186;2024-03-22T09:22:44;30.55;;;17.55;;
52542;SDS011;38449;52.696;6.186;2024-03-22T09:25:10;30.83;;;18.17;;
52542;SDS011;38449;52.696;6.186;2024-03-22T09:27:37;38.50;;;19.48;;
52542;SDS011;38449;52.696;6.186;2024-03-22T09:30:03;34.85;;;19.60;;
52542;SDS011;38449;52.696;6.186;2024-03-22T09:32:30;32.45;;;18.02;;
52542;SDS011;38449;52.696;6.186;2024-03-22T09:34:57;30.95;;;18.52;;
52542;SDS011;38449;52.696;6.186;2024-03-22T09:37:23;33.53;;;20.15;;
52542;SDS011;38449;52.696;6.186;2024-03-22T09:39:49;36.83;;;18.42;;
52542;SDS011;38449;52.696;6.186;2024-03-22T09:42:16;35.22;;;20.67;;
52542;SDS011;38449;52.696;6.186;2024-03-22T09:44:47;35.22;;;20.95;;
52542;SDS011;38449;52.696;6.186;2024-03-22T09:47:17;37.30;;;21.85;;
52542;SDS011;38449;52.696;6.186;2024-03-22T09:49:44;29.70;;;18.75;;
52542;SDS011;38449;52.696;6.186;2024-03-22T09:52:12;32.30;;;18.58;;
52542;SDS011;38449;52.696;6.186;2024-03-22T09:54:43;35.38;;;19.73;;
52542;SDS011;38449;52.696;6.186;2024-03-22T09:57:16;35.25;;;20.98;;
52542;SDS011;38449;52.696;6.186;2024-03-22T09:59:44;34.63;;;20.83;;
52542;SDS011;38449;52.696;6.186;2024-03-22T10:02:12;34.13;;;20.08;;
52542;SDS011;38449;52.696;6.186;2024-03-22T10:04:39;30.25;;;17.60;;
52542;SDS011;38449;52.696;6.186;2024-03-22T10:07:06;30.48;;;19.05;;
52542;SDS011;38449;52.696;6.186;2024-03-22T10:09:34;25.75;;;14.55;;
52542;SDS011;38449;52.696;6.186;2024-03-22T10:12:00;34.65;;;17.10;;
52542;SDS011;38449;52.696;6.186;2024-03-22T10:14:26;25.73;;;15.00;;
52542;SDS011;38449;52.696;6.186;2024-03-22T10:16:53;23.15;;;15.68;;
52542;SDS011;38449;52.696;6.186;2024-03-22T10:19:20;26.98;;;15.93;;
52542;SDS011;38449;52.696;6.186;2024-03-22T10:22:02;26.48;;;15.02;;
52542;SDS011;38449;52.696;6.186;2024-03-22T10:24:29;28.30;;;14.18;;
52542;SDS011;38449;52.696;6.186;2024-03-22T10:26:56;25.80;;;14.68;;
52542;SDS011;38449;52.696;6.186;2024-03-22T10:29:22;25.23;;;15.75;;
52542;SDS011;38449;52.696;6.186;2024-03-22T10:31:50;28.40;;;15.18;;
52542;SDS011;38449;52.696;6.186;2024-03-22T10:34:17;24.52;;;15.35;;
52542;SDS011;38449;52.696;6.186;2024-03-22T10:36:45;21.75;;;13.57;;
52542;SDS011;38449;52.696;6.186;2024-03-22T10:39:12;31.95;;;17.15;;
52542;SDS011;38449;52.696;6.186;2024-03-22T10:41:43;27.40;;;16.15;;
52542;SDS011;38449;52.696;6.186;2024-03-22T10:44:11;29.45;;;16.02;;
52542;SDS011;38449;52.696;6.186;2024-03-22T10:46:38;27.55;;;15.02;;
52542;SDS011;38449;52.696;6.186;2024-03-22T10:49:12;34.75;;;17.95;;
52542;SDS011;38449;52.696;6.186;2024-03-22T10:51:49;33.13;;;18.38;;
52542;SDS011;38449;52.696;6.186;2024-03-22T10:54:24;34.65;;;19.65;;
52542;SDS011;38449;52.696;6.186;2024-03-22T10:56:53;30.23;;;18.02;;
52542;SDS011;38449;52.696;6.186;2024-03-22T10:59:21;33.22;;;20.17;;
52542;SDS011;38449;52.696;6.186;2024-03-22T11:01:50;28.65;;;15.77;;
52542;SDS011;38449;52.696;6.186;2024-03-22T11:04:17;28.60;;;15.35;;
52542;SDS011;38449;52.696;6.186;2024-03-22T11:06:48;21.15;;;13.10;;
52542;SDS011;38449;52.696;6.186;2024-03-22T11:09:21;15.45;;;10.93;;
52542;SDS011;38449;52.696;6.186;2024-03-22T11:11:48;17.48;;;11.85;;
52542;SDS011;38449;52.696;6.186;2024-03-22T11:14:17;16.55;;;9.85;;
52542;SDS011;38449;52.696;6.186;2024-03-22T11:16:44;16.90;;;11.30;;
52542;SDS011;38449;52.696;6.186;2024-03-22T11:19:11;12.45;;;9.48;;
52542;SDS011;38449;52.696;6.186;2024-03-22T11:21:39;17.50;;;10.77;;
52542;SDS011;38449;52.696;6.186;2024-03-22T11:24:05;13.38;;;9.95;;
52542;SDS011;38449;52.696;6.186;2024-03-22T11:26:32;14.98;;;9.98;;
52542;SDS011;38449;52.696;6.186;2024-03-22T11:28:59;12.48;;;9.30;;
52542;SDS011;38449;52.696;6.186;2024-03-22T11:31:26;14.88;;;9.57;;
52542;SDS011;38449;52.696;6.186;2024-03-22T11:33:53;13.40;;;8.85;;
52542;SDS011;38449;52.696;6.186;2024-03-22T11:36:20;10.40;;;8.43;;
52542;SDS011;38449;52.696;6.186;2024-03-22T11:38:47;13.90;;;9.02;;
52542;SDS011;38449;52.696;6.186;2024-03-22T11:41:19;12.80;;;9.40;;
52542;SDS011;38449;52.696;6.186;2024-03-22T11:43:53;10.00;;;8.05;;
52542;SDS011;38449;52.696;6.186;2024-03-22T11:46:20;12.02;;;9.15;;
52542;SDS011;38449;52.696;6.186;2024-03-22T11:48:51;12.50;;;7.20;;
52542;SDS011;38449;52.696;6.186;2024-03-22T11:51:19;10.98;;;8.48;;
52542;SDS011;38449;52.696;6.186;2024-03-22T11:53:52;10.48;;;7.78;;
52542;SDS011;38449;52.696;6.186;2024-03-22T11:56:21;12.27;;;8.30;;
52542;SDS011;38449;52.696;6.186;2024-03-22T11:58:48;10.65;;;7.03;;
52542;SDS011;38449;52.696;6.186;2024-03-22T12:01:15;10.57;;;7.50;;
52542;SDS011;38449;52.696;6.186;2024-03-22T12:03:45;11.73;;;7.72;;
52542;SDS011;38449;52.696;6.186;2024-03-22T12:06:12;11.77;;;7.82;;
52542;SDS011;38449;52.696;6.186;2024-03-22T12:08:40;10.18;;;7.22;;
52542;SDS011;38449;52.696;6.186;2024-03-22T12:11:07;7.40;;;6.20;;
52542;SDS011;38449;52.696;6.186;2024-03-22T12:13:35;9.48;;;6.88;;
52542;SDS011;38449;52.696;6.186;2024-03-22T12:16:03;7.35;;;6.30;;
52542;SDS011;38449;52.696;6.186;2024-03-22T12:18:30;8.05;;;5.22;;
52542;SDS011;38449;52.696;6.186;2024-03-22T12:20:56;6.45;;;4.88;;
52542;SDS011;38449;52.696;6.186;2024-03-22T12:23:23;6.03;;;4.80;;
52542;SDS011;38449;52.696;6.186;2024-03-22T12:25:50;5.32;;;3.90;;
52542;SDS011;38449;52.696;6.186;2024-03-22T12:28:18;6.15;;;4.18;;
52542;SDS011;38449;52.696;6.186;2024-03-22T12:30:44;6.13;;;4.32;;
52542;SDS011;38449;52.696;6.186;2024-03-22T12:33:11;5.60;;;4.32;;
52542;SDS011;38449;52.696;6.186;2024-03-22T12:35:40;5.18;;;3.97;;
52542;SDS011;38449;52.696;6.186;2024-03-22T12:38:07;5.65;;;4.28;;
52542;SDS011;38449;52.696;6.186;2024-03-22T12:40:39;6.10;;;4.80;;
52542;SDS011;38449;52.696;6.186;2024-03-22T12:43:06;5.05;;;3.92;;
52542;SDS011;38449;52.696;6.186;2024-03-22T12:45:34;5.35;;;3.70;;
52542;SDS011;38449;52.696;6.186;2024-03-22T12:48:01;4.15;;;3.50;;
52542;SDS011;38449;52.696;6.186;2024-03-22T12:50:27;6.05;;;4.22;;
52542;SDS011;38449;52.696;6.186;2024-03-22T12:52:53;8.02;;;5.05;;
52542;SDS011;38449;52.696;6.186;2024-03-22T12:55:20;9.20;;;4.70;;
52542;SDS011;38449;52.696;6.186;2024-03-22T12:57:46;10.00;;;5.28;;
52542;SDS011;38449;52.696;6.186;2024-03-22T13:00:13;6.68;;;4.30;;
52542;SDS011;38449;52.696;6.186;2024-03-22T13:02:47;8.90;;;4.82;;
52542;SDS011;38449;52.696;6.186;2024-03-22T13:05:13;7.55;;;4.32;;
52542;SDS011;38449;52.696;6.186;2024-03-22T13:07:41;6.70;;;4.50;;
52542;SDS011;38449;52.696;6.186;2024-03-22T13:10:08;7.20;;;4.25;;
52542;SDS011;38449;52.696;6.186;2024-03-22T13:12:34;9.82;;;4.30;;
52542;SDS011;38449;52.696;6.186;2024-03-22T13:15:01;6.85;;;4.35;;
52542;SDS011;38449;52.696;6.186;2024-03-22T13:17:28;8.98;;;5.00;;
52542;SDS011;38449;52.696;6.186;2024-03-22T13:19:54;10.23;;;5.43;;
52542;SDS011;38449;52.696;6.186;2024-03-22T13:22:20;10.50;;;5.07;;
52542;SDS011;38449;52.696;6.186;2024-03-22T13:24:47;9.60;;;5.55;;
52542;SDS011;38449;52.696;6.186;2024-03-22T13:27:14;12.65;;;6.10;;
52542;SDS011;38449;52.696;6.186;2024-03-22T13:29:41;11.80;;;6.28;;
52542;SDS011;38449;52.696;6.186;2024-03-22T13:32:07;11.25;;;7.30;;
52542;SDS011;38449;52.696;6.186;2024-03-22T13:34:35;13.68;;;7.45;;
52542;SDS011;38449;52.696;6.186;2024-03-22T13:37:02;14.40;;;7.35;;
52542;SDS011;38449;52.696;6.186;2024-03-22T13:39:28;13.57;;;7.50;;
52542;SDS011;38449;52.696;6.186;2024-03-22T13:41:57;11.65;;;7.78;;
52542;SDS011;38449;52.696;6.186;2024-03-22T13:44:24;13.07;;;8.43;;
52542;SDS011;38449;52.696;6.186;2024-03-22T13:46:50;14.85;;;7.35;;
52542;SDS011;38449;52.696;6.186;2024-03-22T13:49:17;14.13;;;9.20;;
52542;SDS011;38449;52.696;6.186;2024-03-22T13:51:46;15.05;;;8.40;;
52542;SDS011;38449;52.696;6.186;2024-03-22T13:54:14;14.27;;;8.25;;
52542;SDS011;38449;52.696;6.186;2024-03-22T13:56:41;17.80;;;8.20;;
52542;SDS011;38449;52.696;6.186;2024-03-22T13:59:07;15.30;;;8.98;;
52542;SDS011;38449;52.696;6.186;2024-03-22T14:01:35;14.73;;;8.10;;
52542;SDS011;38449;52.696;6.186;2024-03-22T14:04:04;15.73;;;7.70;;
52542;SDS011;38449;52.696;6.186;2024-03-22T14:06:31;15.35;;;6.85;;
52542;SDS011;38449;52.696;6.186;2024-03-22T14:08:58;16.13;;;8.25;;
52542;SDS011;38449;52.696;6.186;2024-03-22T14:11:29;15.15;;;7.45;;
52542;SDS011;38449;52.696;6.186;2024-03-22T14:13:59;16.90;;;7.22;;
52542;SDS011;38449;52.696;6.186;2024-03-22T14:16:25;14.85;;;5.60;;
52542;SDS011;38449;52.696;6.186;2024-03-22T14:18:52;14.10;;;6.25;;
52542;SDS011;38449;52.696;6.186;2024-03-22T14:21:18;16.35;;;7.13;;
52542;SDS011;38449;52.696;6.186;2024-03-22T14:23:51;15.32;;;5.55;;
52542;SDS011;38449;52.696;6.186;2024-03-22T14:26:17;14.98;;;5.93;;